createdAt,value
2023-01-11T00:03:24.428Z,100553.44
2023-01-11T00:08:27.691Z,100549.19
2023-01-11T00:13:30.086Z,100541.16
2023-01-11T00:18:31.597Z,100529.44
2023-01-11T00:23:34.701Z,100512.44
2023-01-11T00:28:36.276Z,100505.06
2023-01-11T00:33:37.788Z,100506.22
2023-01-11T00:38:39.376Z,100504.75
2023-01-11T00:43:40.919Z,100492.59
2023-01-11T00:48:42.427Z,100485.09
2023-01-11T00:53:43.961Z,100476.47
2023-01-11T00:58:45.473Z,100473.22
2023-01-11T01:03:46.976Z,100480.69
2023-01-11T01:08:48.775Z,100482.88
2023-01-11T01:13:50.268Z,100478.50
2023-01-11T01:18:51.770Z,100468.41
2023-01-11T01:23:54.657Z,100462.63
2023-01-11T01:28:56.141Z,100471.13
2023-01-11T01:33:58.189Z,100478.97
2023-01-11T01:39:00.179Z,100472.38
2023-01-11T01:44:05.229Z,100477.25
2023-01-11T01:49:14.792Z,100461.78
2023-01-11T01:54:23.376Z,100459.06
2023-01-11T01:59:29.542Z,100455.91
2023-01-11T02:04:43.938Z,100453.03
2023-01-11T02:09:55.499Z,100437.34
2023-01-11T02:15:00.516Z,100441.56
2023-01-11T02:20:20.896Z,100436.66
2023-01-11T02:25:41.144Z,100427.81
2023-01-11T02:31:15.099Z,100420.06
2023-01-11T02:36:38.447Z,100418.06
2023-01-11T02:41:39.919Z,100401.72
2023-01-11T02:46:53.076Z,100397.13
2023-01-11T02:52:00.620Z,100395.69
2023-01-11T02:57:04.236Z,100388.31
2023-01-11T03:02:05.848Z,100385.50
2023-01-11T03:07:25.673Z,100369.19
2023-01-11T03:12:27.135Z,100367.06
2023-01-11T03:17:35.344Z,100357.03
2023-01-11T03:23:12.458Z,100353.06
2023-01-11T03:28:35.306Z,100344.19
2023-01-11T03:33:52.758Z,100346.31
2023-01-11T03:38:56.783Z,100337.38
2023-01-11T03:44:01.329Z,100338.88
2023-01-11T03:49:14.658Z,100318.72
2023-01-11T03:54:21.813Z,100328.66
2023-01-11T03:59:23.637Z,100317.91
2023-01-11T04:04:25.266Z,100321.03
2023-01-11T04:09:26.825Z,100323.66
2023-01-11T04:14:28.440Z,100329.34
2023-01-11T04:19:30.060Z,100324.38
2023-01-11T04:24:31.709Z,100321.47
2023-01-11T04:29:33.263Z,100325.44
2023-01-11T04:34:34.744Z,100328.34
2023-01-11T04:39:36.347Z,100327.91
2023-01-11T04:44:37.939Z,100328.66
2023-01-11T04:49:39.502Z,100330.94
2023-01-11T04:54:41.757Z,100331.25
2023-01-11T04:59:43.332Z,100319.78
2023-01-11T05:04:44.862Z,100312.09
2023-01-11T05:09:46.370Z,100310.22
2023-01-11T05:14:47.936Z,100303.03
2023-01-11T05:19:49.484Z,100300.56
2023-01-11T05:24:51.059Z,100300.56
2023-01-11T05:29:52.526Z,100304.97
2023-01-11T05:34:54.027Z,100304.09
2023-01-11T05:39:55.567Z,100295.22
2023-01-11T05:44:58.252Z,100296.81
2023-01-11T05:49:59.849Z,100284.13
2023-01-11T05:55:01.332Z,100270.19
2023-01-11T06:00:03.919Z,100281.28
2023-01-11T06:05:08.627Z,100281.34
2023-01-11T06:10:10.834Z,100274.69
2023-01-11T06:15:12.354Z,100275.53
2023-01-11T06:20:13.917Z,100269.25
2023-01-11T06:25:15.404Z,100266.25
2023-01-11T06:30:17.361Z,100271.47
2023-01-11T06:35:18.908Z,100269.88
2023-01-11T06:40:20.501Z,100262.00
2023-01-11T06:45:22.046Z,100273.91
2023-01-11T06:50:24.046Z,100276.94
2023-01-11T06:55:27.894Z,100287.44
2023-01-11T07:00:29.430Z,100287.03
2023-01-11T07:05:35.684Z,100291.47
2023-01-11T07:10:37.687Z,100292.50
2023-01-11T07:15:39.363Z,100304.09
2023-01-11T07:20:41.372Z,100319.25
2023-01-11T07:25:42.900Z,100328.56
2023-01-11T07:30:57.639Z,100328.38
2023-01-11T07:36:00.587Z,100336.66
2023-01-11T07:41:02.101Z,100360.28
2023-01-11T07:46:03.712Z,100365.91
2023-01-11T07:51:05.363Z,100371.75
2023-01-11T07:56:07.047Z,100377.63
2023-01-11T08:01:08.582Z,100387.28
2023-01-11T08:06:10.219Z,100398.25
2023-01-11T08:11:12.038Z,100389.53
2023-01-11T08:16:13.618Z,100399.03
2023-01-11T08:21:15.214Z,100401.47
2023-01-11T08:26:16.769Z,100407.75
2023-01-11T08:31:18.464Z,100403.69
2023-01-11T08:36:20.046Z,100413.44
2023-01-11T08:41:22.124Z,100409.22
2023-01-11T08:46:23.805Z,100422.34
2023-01-11T08:51:25.371Z,100419.25
2023-01-11T08:56:26.927Z,100444.09
2023-01-11T09:01:28.815Z,100450.34
2023-01-11T09:06:30.444Z,100468.16
2023-01-11T09:11:32.100Z,100467.00
2023-01-11T09:16:33.638Z,100466.16
2023-01-11T09:21:35.126Z,100466.56
2023-01-11T09:26:36.669Z,100470.00
2023-01-11T09:31:38.591Z,100472.34
2023-01-11T09:36:40.627Z,100450.97
2023-01-11T09:42:06.123Z,100483.53
2023-01-11T09:47:22.991Z,100494.06
2023-01-11T09:52:24.486Z,100490.25
2023-01-11T09:57:49.015Z,100506.03
2023-01-11T10:03:18.175Z,100508.44
2023-01-11T10:18:29.557Z,100540.59
2023-01-11T10:19:46.545Z,100540.16
2023-01-11T10:24:52.960Z,100561.56
2023-01-11T10:29:58.988Z,100563.72
2023-01-11T10:35:16.113Z,100572.06
2023-01-11T10:40:27.975Z,100595.41
2023-01-11T10:45:43.890Z,100577.44
2023-01-11T10:51:22.802Z,100588.25
2023-01-11T10:57:02.419Z,100577.31
2023-01-11T11:02:27.455Z,100576.75
2023-01-11T11:08:01.720Z,100575.31
2023-01-11T11:13:22.021Z,100580.34
2023-01-11T11:18:24.103Z,100592.22
2023-01-11T11:23:27.072Z,100594.16
2023-01-11T11:28:30.986Z,100605.69
2023-01-11T11:33:40.895Z,100618.03
2023-01-11T11:39:19.028Z,100622.50
2023-01-11T11:44:23.840Z,100626.34
2023-01-11T11:49:26.072Z,100619.25
2023-01-11T11:54:32.101Z,100611.50
2023-01-11T11:59:33.646Z,100624.59
2023-01-11T12:04:37.873Z,100614.78
2023-01-11T12:09:43.207Z,100617.59
2023-01-11T12:15:24.638Z,100625.31
2023-01-11T12:20:28.212Z,100602.28
2023-01-11T12:25:29.850Z,100611.94
2023-01-11T12:31:30.448Z,100612.06
2023-01-11T12:36:53.062Z,100613.25
2023-01-11T12:42:18.643Z,100630.19
2023-01-11T12:47:29.584Z,100628.00
2023-01-11T12:53:11.130Z,100638.00
2023-01-11T12:58:23.995Z,100644.00
2023-01-11T13:03:34.686Z,100655.53
2023-01-11T13:08:56.677Z,100651.97
2023-01-11T13:14:06.147Z,100668.69
2023-01-11T13:19:21.307Z,100671.31
2023-01-11T13:24:28.245Z,100670.56
2023-01-11T13:29:34.731Z,100662.59
2023-01-11T13:34:42.045Z,100673.19
2023-01-11T13:39:51.880Z,100674.69
2023-01-11T13:44:59.824Z,100677.78
2023-01-11T13:50:05.331Z,100688.97
2023-01-11T13:55:25.999Z,100689.28
2023-01-11T14:00:41.004Z,100699.59
2023-01-11T14:06:32.375Z,100693.81
2023-01-11T14:12:01.034Z,100706.81
2023-01-11T14:17:08.410Z,100708.88
2023-01-11T14:22:14.520Z,100716.56
2023-01-11T14:27:56.566Z,100717.13
2023-01-11T14:33:06.946Z,100716.22
2023-01-11T14:38:27.201Z,100729.19
2023-01-11T14:43:46.412Z,100729.50
2023-01-11T14:49:23.487Z,100742.34
2023-01-11T14:54:39.395Z,100746.25
2023-01-11T14:59:41.067Z,100744.84
2023-01-11T15:04:51.748Z,100750.78
2023-01-11T15:09:53.653Z,100750.91
2023-01-11T15:15:14.729Z,100748.84
2023-01-11T15:20:19.069Z,100755.13
2023-01-11T15:25:24.766Z,100761.81
2023-01-11T15:30:29.220Z,100762.69
2023-01-11T15:35:33.724Z,100765.91
2023-01-11T15:40:40.507Z,100761.56
2023-01-11T15:45:51.388Z,100765.44
2023-01-11T15:51:16.864Z,100782.69
2023-01-11T15:56:51.948Z,100774.00
2023-01-11T16:02:14.690Z,100777.66
2023-01-11T16:07:42.895Z,100792.09
2023-01-11T16:13:04.621Z,100782.50
2023-01-11T16:18:15.052Z,100784.84
2023-01-11T16:23:20.668Z,100796.53
2023-01-11T16:28:22.618Z,100799.09
2023-01-11T16:33:26.844Z,100803.00
2023-01-11T16:38:28.753Z,100810.19
2023-01-11T16:43:32.770Z,100821.59
2023-01-11T16:48:34.381Z,100836.38
2023-01-11T16:53:39.298Z,100841.75
2023-01-11T16:58:41.639Z,100847.50
2023-01-11T17:03:51.533Z,100856.91
2023-01-11T17:08:55.622Z,100870.66
2023-01-11T17:14:12.327Z,100878.34
2023-01-11T17:19:21.718Z,100881.78
2023-01-11T17:24:24.627Z,100887.50
2023-01-11T17:29:33.421Z,100895.44
2023-01-11T17:34:37.168Z,100899.88
2023-01-11T17:39:47.770Z,100909.31
2023-01-11T17:44:51.079Z,100920.34
2023-01-11T17:49:55.492Z,100921.78
2023-01-11T17:55:02.289Z,100912.88
2023-01-11T18:00:22.494Z,100910.75
2023-01-11T18:05:27.507Z,100917.94
2023-01-11T18:10:31.495Z,100918.66
2023-01-11T18:15:36.741Z,100912.78
2023-01-11T18:20:39.829Z,100915.22
2023-01-11T18:25:41.615Z,100900.94
2023-01-11T18:30:50.831Z,100908.91
2023-01-11T18:35:58.474Z,100923.78
2023-01-11T18:41:05.378Z,100922.31
2023-01-11T18:46:09.266Z,100911.00
2023-01-11T18:51:17.626Z,100914.44
2023-01-11T18:56:19.385Z,100913.94
2023-01-11T19:01:21.022Z,100916.22
2023-01-11T19:06:22.778Z,100914.00
2023-01-11T19:11:24.530Z,100910.47
2023-01-11T19:16:26.256Z,100909.97
2023-01-11T19:21:27.970Z,100901.97
2023-01-11T19:26:29.531Z,100896.28
2023-01-11T19:31:31.341Z,100876.97
2023-01-11T19:36:32.878Z,100866.31
2023-01-11T19:41:35.122Z,100876.78
2023-01-11T19:46:36.767Z,100874.56
2023-01-11T19:51:38.604Z,100866.78
2023-01-11T19:56:44.110Z,100868.56
2023-01-11T20:01:47.231Z,100868.53
2023-01-11T20:06:48.904Z,100873.44
2023-01-11T20:11:50.459Z,100859.59
2023-01-11T20:16:52.138Z,100863.50
2023-01-11T20:21:53.793Z,100860.56
2023-01-11T20:26:56.730Z,100860.69
2023-01-11T20:32:15.380Z,100853.19
2023-01-11T20:37:20.004Z,100853.16
2023-01-11T20:42:21.605Z,100847.00
2023-01-11T20:47:23.135Z,100856.78
2023-01-11T20:52:24.650Z,100845.09
2023-01-11T20:57:26.297Z,100831.53
2023-01-11T21:02:27.946Z,100815.16
2023-01-11T21:07:29.804Z,100823.16
2023-01-11T21:12:31.412Z,100807.38
2023-01-11T21:17:33.194Z,100822.88
2023-01-11T21:22:35.012Z,100812.19
2023-01-11T21:27:36.516Z,100820.72
2023-01-11T21:32:38.094Z,100825.09
2023-01-11T21:37:39.638Z,100818.88
2023-01-11T21:42:42.038Z,100796.53
2023-01-11T21:47:44.029Z,100799.03
2023-01-11T21:52:45.622Z,100780.69
2023-01-11T21:57:47.132Z,100776.16
2023-01-11T22:02:49.871Z,100770.91
2023-01-11T22:07:51.411Z,100767.59
2023-01-11T22:12:53.180Z,100767.03
2023-01-11T22:17:54.725Z,100767.63
2023-01-11T22:22:56.227Z,100753.59
2023-01-11T22:27:57.722Z,100751.78
2023-01-11T22:32:59.806Z,100747.91
2023-01-11T22:38:01.307Z,100741.56
2023-01-11T22:43:02.851Z,100744.81
2023-01-11T22:48:04.517Z,100739.03
2023-01-11T22:53:05.989Z,100732.81
2023-01-11T22:58:07.472Z,100743.75
2023-01-11T23:03:09.122Z,100732.16
2023-01-11T23:08:10.708Z,100735.88
2023-01-11T23:13:12.275Z,100731.97
2023-01-11T23:18:13.740Z,100725.91
2023-01-11T23:23:15.232Z,100728.19
2023-01-11T23:28:16.708Z,100710.63
2023-01-11T23:33:18.227Z,100715.16
2023-01-11T23:38:19.726Z,100714.34
2023-01-11T23:43:21.212Z,100713.53
2023-01-11T23:48:26.355Z,100724.91
2023-01-11T23:53:27.895Z,100725.19
2023-01-11T23:58:30.816Z,100729.94
